If you wish to contribute or participate in the discussions about articles you are invited to join SKYbrary as a registered user

 Actions

Accra/Kotoka

From SKYbrary Wiki

DGAA /
Revision as of 21:18, 28 January 2014 by Timo.Kouwenhoven (talk | contribs) (Text replace - "===Terrain=== {{ #ask: [[{{PAGENAME}}]] |?Coordinates |format=googlemaps |width=800 |zoom=10 |type=physical |icon=Airport-terminal.png }}" to "===Terrain=== {{ #ask: [[{{PAGENAME}}]] |?Coordinates |format=googlemaps |zoom=10 |type=physical)
(diff) ← Older revision | Latest revision (diff) | Newer revision → (diff)
Airport
ICAO: DGAA
Summary
Name Accra/Kotoka
Region Africa
Territory Ghana GH.gif
Location Accra
Serving
Coordinates 5° 36' 17.34" N, 0° 10' 2.42" W
Runways
Designator Length Width Surface ROPS
3/21 3403 m11,164.698 ft
61 m200.131 ft
ASP yes/yes


METAR
Observation DGAA 250800Z 24007KT 5000 HZ NSC 27/23 Q1011 NOSIG
Station Accra
Date/Time 25 March 2019 08:00:00
Wind direction 240°
Wind speed 07 kts
Lowest cloud amount nil significant cloud
Temperature 27°C
Dew point 23°C
Humidity 78%
QNH 1011 hPa
Weather condition n/a


Accra/Kotoka Airport

ICAO: DGAA IATA: ACC

Description

International airport serving the capital of Ghana.

Climatology

Tropical Savanna climate (Köppen climate classification Aw)

Maps

Terrain

Loading map...

Airport Layout

Loading map...


Accidents & Serious Incidents at or in vicinity of DGAA

None on SKYbrary